createdAt,value
2019-03-16T00:01:34.410Z,0.90
2019-03-16T00:04:15.201Z,0.70
2019-03-16T00:06:56.050Z,0.90
2019-03-16T00:09:36.772Z,1.03
2019-03-16T00:12:17.273Z,0.70
2019-03-16T00:14:58.110Z,1.20
2019-03-16T00:17:38.755Z,0.90
2019-03-16T00:20:19.542Z,0.80
2019-03-16T00:23:00.162Z,1.10
2019-03-16T00:25:41.154Z,0.80
2019-03-16T00:28:21.954Z,0.80
2019-03-16T00:31:02.637Z,0.77
2019-03-16T00:33:43.674Z,0.87
2019-03-16T00:36:24.614Z,0.80
2019-03-16T00:39:05.042Z,0.90
2019-03-16T00:41:45.894Z,0.90
2019-03-16T00:44:26.461Z,0.87
2019-03-16T00:47:07.317Z,0.90
2019-03-16T00:49:48.074Z,0.57
2019-03-16T00:52:28.493Z,0.97
2019-03-16T00:55:09.330Z,1.10
2019-03-16T00:57:49.978Z,1.03
2019-03-16T01:00:30.882Z,0.90
2019-03-16T01:03:11.512Z,1.13
2019-03-16T01:05:52.071Z,1.00
2019-03-16T01:08:33.046Z,0.70
2019-03-16T01:11:13.630Z,0.90
2019-03-16T01:13:54.369Z,1.00
2019-03-16T01:16:34.949Z,0.97
2019-03-16T01:19:15.494Z,1.30
2019-03-16T01:21:54.554Z,0.70
2019-03-16T01:24:42.695Z,1.00
2019-03-16T01:27:31.278Z,0.90
2019-03-16T01:30:19.401Z,1.00
2019-03-16T01:33:07.519Z,1.00
2019-03-16T01:35:55.556Z,0.83
2019-03-16T01:38:43.591Z,1.10
2019-03-16T01:41:31.725Z,0.90
2019-03-16T01:44:19.766Z,0.90
2019-03-16T01:47:07.809Z,1.20
2019-03-16T01:49:56.099Z,0.70
2019-03-16T01:52:44.205Z,0.97
2019-03-16T01:55:32.321Z,1.10
2019-03-16T01:58:20.602Z,0.90
2019-03-16T02:01:08.955Z,0.80
2019-03-16T02:03:56.994Z,1.00
2019-03-16T02:06:45.033Z,0.90
2019-03-16T02:09:33.065Z,1.10
2019-03-16T02:12:21.342Z,1.03
2019-03-16T02:15:09.455Z,1.23
2019-03-16T02:17:57.558Z,0.67
2019-03-16T02:20:45.597Z,0.93
2019-03-16T02:23:33.638Z,0.80
2019-03-16T02:26:21.935Z,1.07
2019-03-16T02:29:09.965Z,1.10
2019-03-16T02:31:50.446Z,0.80
2019-03-16T02:34:31.090Z,0.50
2019-03-16T02:37:12.290Z,0.90
2019-03-16T02:39:53.214Z,1.00
2019-03-16T02:42:34.395Z,0.60
2019-03-16T02:45:15.145Z,1.00
2019-03-16T02:47:55.850Z,0.83
2019-03-16T02:50:36.298Z,0.90
2019-03-16T02:53:16.847Z,0.60
2019-03-16T02:55:57.407Z,1.00
2019-03-16T02:58:38.602Z,0.90
2019-03-16T03:01:19.221Z,0.80
2019-03-16T03:03:59.635Z,1.13
2019-03-16T03:06:40.138Z,0.93
2019-03-16T03:09:20.515Z,0.90
2019-03-16T03:12:01.227Z,0.70
2019-03-16T03:14:42.406Z,1.03
2019-03-16T03:17:22.879Z,0.90
2019-03-16T03:20:03.822Z,0.50
2019-03-16T03:22:44.419Z,0.60
2019-03-16T03:25:24.798Z,0.90
2019-03-16T03:28:05.359Z,0.70
2019-03-16T03:30:46.275Z,0.70
2019-03-16T03:33:27.281Z,1.03
2019-03-16T03:35:56.122Z,1.00
2019-03-16T03:38:44.237Z,0.87
2019-03-16T03:41:32.591Z,0.90
2019-03-16T03:44:20.709Z,0.97
2019-03-16T03:47:08.841Z,0.70
2019-03-16T03:49:56.947Z,0.97
2019-03-16T03:52:45.313Z,0.80
2019-03-16T03:55:33.430Z,1.00
2019-03-16T03:58:21.792Z,0.80
2019-03-16T04:01:09.910Z,1.20
2019-03-16T04:04:14.414Z,1.40
2019-03-16T04:06:47.847Z,0.87
2019-03-16T04:09:35.968Z,1.20
2019-03-16T04:12:24.055Z,1.00
2019-03-16T04:15:12.187Z,0.90
2019-03-16T04:18:00.222Z,1.13
2019-03-16T04:20:48.273Z,1.00
2019-03-16T04:23:36.298Z,1.20
2019-03-16T04:26:24.416Z,1.20
2019-03-16T04:29:12.817Z,1.00
2019-03-16T04:31:53.409Z,0.90
2019-03-16T04:34:33.998Z,1.00
2019-03-16T04:37:14.480Z,1.30
2019-03-16T04:39:55.046Z,1.30
2019-03-16T04:42:35.761Z,1.00
2019-03-16T04:45:16.553Z,1.10
2019-03-16T04:47:57.637Z,0.80
2019-03-16T04:50:38.054Z,1.67
2019-03-16T04:53:18.657Z,1.00
2019-03-16T04:55:59.559Z,1.00
2019-03-16T04:58:40.126Z,0.90
2019-03-16T05:01:20.833Z,1.10
2019-03-16T05:04:01.417Z,1.13
2019-03-16T05:06:42.075Z,1.00
2019-03-16T05:09:22.555Z,1.30
2019-03-16T05:12:03.338Z,1.10
2019-03-16T05:14:44.003Z,1.40
2019-03-16T05:17:24.537Z,1.20
2019-03-16T05:20:05.261Z,1.00
2019-03-16T05:22:45.866Z,0.50
2019-03-16T05:25:27.070Z,1.17
2019-03-16T05:28:07.696Z,1.10
2019-03-16T05:30:48.180Z,1.13
2019-03-16T05:33:28.850Z,1.60
2019-03-16T05:36:09.570Z,1.20
2019-03-16T05:38:50.432Z,1.53
2019-03-16T05:41:31.191Z,0.90
2019-03-16T05:44:11.821Z,1.10
2019-03-16T05:46:52.377Z,1.00
2019-03-16T05:49:32.921Z,1.10
2019-03-16T05:52:13.602Z,1.00
2019-03-16T05:54:54.268Z,1.20
2019-03-16T05:57:35.078Z,1.10
2019-03-16T06:00:15.583Z,1.10
2019-03-16T06:02:56.067Z,1.10
2019-03-16T06:05:36.866Z,1.10
2019-03-16T06:08:17.537Z,1.10
2019-03-16T06:10:58.361Z,1.57
2019-03-16T06:13:39.190Z,1.40
2019-03-16T06:16:19.913Z,1.20
2019-03-16T06:19:00.532Z,1.43
2019-03-16T06:21:41.204Z,1.30
2019-03-16T06:24:21.830Z,1.77
2019-03-16T06:27:02.440Z,1.30
2019-03-16T06:29:43.351Z,1.40
2019-03-16T06:32:24.089Z,1.30
2019-03-16T06:35:05.101Z,1.30
2019-03-16T06:37:45.815Z,1.30
2019-03-16T06:40:26.737Z,1.10
2019-03-16T06:43:07.351Z,1.50
2019-03-16T06:45:48.210Z,1.20
2019-03-16T06:48:28.937Z,1.53
2019-03-16T06:51:09.630Z,1.20
2019-03-16T06:53:50.169Z,1.20
2019-03-16T06:56:30.758Z,1.37
2019-03-16T06:59:11.594Z,1.47
2019-03-16T07:01:52.293Z,1.10
2019-03-16T07:04:33.356Z,1.20
2019-03-16T07:07:14.082Z,1.07
2019-03-16T07:09:54.636Z,1.07
2019-03-16T07:12:35.494Z,1.60
2019-03-16T07:15:16.052Z,1.30
2019-03-16T07:17:56.898Z,1.50
2019-03-16T07:20:37.638Z,1.33
2019-03-16T07:23:18.281Z,1.13
2019-03-16T07:25:59.113Z,1.30
2019-03-16T07:28:39.823Z,1.00
2019-03-16T07:31:20.507Z,1.00
2019-03-16T07:34:01.203Z,1.30
2019-03-16T07:36:41.741Z,1.10
2019-03-16T07:39:22.621Z,1.20
2019-03-16T07:42:03.426Z,1.00
2019-03-16T07:44:44.090Z,1.20
2019-03-16T07:47:25.214Z,1.03
2019-03-16T07:50:05.858Z,1.40
2019-03-16T07:52:46.728Z,1.17
2019-03-16T07:55:27.638Z,1.00
2019-03-16T07:58:08.357Z,1.30
2019-03-16T08:00:49.062Z,1.27
2019-03-16T08:03:29.987Z,1.40
2019-03-16T08:06:10.693Z,1.00
2019-03-16T08:08:51.451Z,1.13
2019-03-16T08:11:32.210Z,1.20
2019-03-16T08:14:12.979Z,1.07
2019-03-16T08:16:53.878Z,1.20
2019-03-16T08:19:34.394Z,0.90
2019-03-16T08:22:14.971Z,1.30
2019-03-16T08:24:55.747Z,0.90
2019-03-16T08:27:36.327Z,1.67
2019-03-16T08:30:17.097Z,1.20
2019-03-16T08:32:57.889Z,0.57
2019-03-16T08:35:38.734Z,0.80
2019-03-16T08:38:19.420Z,0.90
2019-03-16T08:41:00.415Z,1.10
2019-03-16T08:43:41.607Z,0.97
2019-03-16T08:46:22.054Z,1.07
2019-03-16T08:49:02.989Z,1.07
2019-03-16T08:51:43.618Z,0.80
2019-03-16T08:54:24.446Z,1.07
2019-03-16T08:57:04.822Z,0.90
2019-03-16T08:59:45.654Z,0.60
2019-03-16T09:02:26.253Z,0.70
2019-03-16T09:05:06.951Z,0.90
2019-03-16T09:07:47.594Z,1.40
2019-03-16T09:10:28.374Z,0.70
2019-03-16T09:13:09.007Z,1.00
2019-03-16T09:15:50.002Z,0.90
2019-03-16T09:18:30.554Z,0.80
2019-03-16T09:21:11.444Z,1.20
2019-03-16T09:23:52.169Z,0.90
2019-03-16T09:26:32.939Z,0.90
2019-03-16T09:29:15.127Z,1.13
2019-03-16T09:31:56.326Z,1.00
2019-03-16T09:34:36.902Z,0.93
2019-03-16T09:37:17.578Z,0.77
2019-03-16T09:39:58.209Z,0.70
2019-03-16T09:42:39.417Z,0.90
2019-03-16T09:45:19.857Z,0.97
2019-03-16T09:48:00.770Z,0.83
2019-03-16T09:50:41.558Z,0.80
2019-03-16T09:53:22.334Z,0.93
2019-03-16T09:56:02.973Z,0.80
2019-03-16T09:58:43.631Z,1.10
2019-03-16T10:01:24.350Z,1.00
2019-03-16T10:04:05.077Z,1.03
2019-03-16T10:06:45.808Z,1.23
2019-03-16T10:09:26.643Z,0.73
2019-03-16T10:12:07.402Z,1.00
2019-03-16T10:14:48.102Z,1.60
2019-03-16T10:17:28.966Z,0.97
2019-03-16T10:20:09.749Z,0.70
2019-03-16T10:22:50.402Z,0.90
2019-03-16T10:25:31.238Z,1.07
2019-03-16T10:28:11.889Z,1.07
2019-03-16T10:30:52.662Z,0.97
2019-03-16T10:33:33.273Z,1.00
2019-03-16T10:36:13.958Z,0.80
2019-03-16T10:38:54.621Z,0.83
2019-03-16T10:41:35.413Z,1.07
2019-03-16T10:44:16.138Z,0.93
2019-03-16T10:46:57.123Z,0.80
2019-03-16T10:49:37.686Z,0.83
2019-03-16T10:52:18.374Z,0.70
2019-03-16T10:54:58.934Z,0.80
2019-03-16T10:57:39.730Z,1.03
2019-03-16T11:00:20.687Z,0.80
2019-03-16T11:03:01.194Z,0.87
2019-03-16T11:09:04.397Z,0.83
2019-03-16T11:11:45.437Z,0.90
2019-03-16T11:14:26.057Z,0.90
2019-03-16T11:17:06.814Z,1.07
2019-03-16T11:19:47.303Z,1.10
2019-03-16T11:22:27.838Z,0.70
2019-03-16T11:25:08.705Z,1.13
2019-03-16T11:27:49.385Z,0.87
2019-03-16T11:30:30.074Z,1.23
2019-03-16T11:33:10.573Z,0.72
2019-03-16T11:35:51.295Z,0.90
2019-03-16T11:38:32.082Z,1.70
2019-03-16T11:41:12.597Z,1.00
2019-03-16T11:43:53.366Z,1.10
2019-03-16T11:46:34.689Z,0.90
2019-03-16T11:49:13.895Z,1.23
2019-03-16T11:52:01.929Z,1.17
2019-03-16T11:54:50.065Z,1.10
2019-03-16T11:57:38.219Z,0.90
2019-03-16T12:00:26.334Z,1.03
2019-03-16T12:03:14.660Z,0.90
2019-03-16T12:06:02.705Z,0.80
2019-03-16T12:08:50.844Z,1.00
2019-03-16T12:11:38.957Z,0.90
2019-03-16T12:14:27.009Z,0.73
2019-03-16T12:17:15.122Z,1.00
2019-03-16T12:20:03.265Z,1.40
2019-03-16T12:22:51.389Z,1.10
2019-03-16T12:25:39.505Z,0.93
2019-03-16T12:28:27.630Z,1.00
2019-03-16T12:30:56.634Z,0.90
2019-03-16T12:33:44.685Z,1.17
2019-03-16T12:36:32.798Z,1.17
2019-03-16T12:39:20.938Z,1.00
2019-03-16T12:42:08.982Z,1.00
2019-03-16T12:44:57.114Z,1.07
2019-03-16T12:47:45.229Z,0.70
2019-03-16T12:50:33.557Z,0.70
2019-03-16T12:53:21.680Z,1.10
2019-03-16T12:56:09.805Z,0.97
2019-03-16T12:59:09.489Z,0.70
2019-03-16T13:01:47.774Z,1.30
2019-03-16T13:04:35.989Z,0.70
2019-03-16T13:07:24.178Z,0.67
2019-03-16T13:10:12.504Z,0.60
2019-03-16T13:13:00.716Z,0.87
2019-03-16T13:15:48.930Z,1.20
2019-03-16T13:18:37.149Z,0.93
2019-03-16T13:21:25.277Z,0.93
2019-03-16T13:24:13.631Z,0.93
2019-03-16T13:27:01.745Z,0.70
2019-03-16T13:29:58.439Z,0.73
2019-03-16T13:32:32.919Z,1.00
2019-03-16T13:35:13.705Z,0.70
2019-03-16T13:37:54.477Z,0.95
2019-03-16T13:40:35.429Z,0.70
2019-03-16T13:43:16.546Z,0.60
2019-03-16T13:45:57.066Z,0.80
2019-03-16T13:48:37.768Z,0.82
2019-03-16T13:51:18.367Z,0.60
2019-03-16T13:53:59.075Z,1.10
2019-03-16T13:56:39.697Z,0.88
2019-03-16T13:59:20.310Z,0.80
2019-03-16T14:02:01.237Z,1.00
2019-03-16T14:04:41.848Z,0.98
2019-03-16T14:07:22.622Z,1.15
2019-03-16T14:10:03.501Z,0.60
2019-03-16T14:12:44.209Z,0.70
2019-03-16T14:15:24.985Z,0.70
2019-03-16T14:18:05.598Z,0.60
2019-03-16T14:20:46.485Z,0.80
2019-03-16T14:23:27.370Z,1.05
2019-03-16T14:26:07.806Z,0.70
2019-03-16T14:31:53.597Z,0.85
2019-03-16T14:34:34.387Z,0.90
2019-03-16T14:37:14.922Z,0.90
2019-03-16T14:39:55.686Z,0.60
2019-03-16T14:42:36.330Z,0.60
2019-03-16T14:45:16.868Z,0.93
2019-03-16T14:47:57.234Z,0.70
2019-03-16T14:50:37.664Z,0.75
2019-03-16T14:53:18.575Z,0.70
2019-03-16T14:56:00.530Z,0.87
2019-03-16T14:58:40.890Z,0.50
2019-03-16T15:01:09.970Z,0.78
2019-03-16T15:03:58.055Z,0.90
2019-03-16T15:06:46.170Z,0.80
2019-03-16T15:09:34.225Z,0.50
2019-03-16T15:12:22.565Z,0.57
2019-03-16T15:15:11.046Z,0.72
2019-03-16T15:17:59.300Z,0.90
2019-03-16T15:20:47.610Z,0.90
2019-03-16T15:23:35.720Z,0.83
2019-03-16T15:26:23.761Z,0.77
2019-03-16T15:29:12.058Z,0.60
2019-03-16T15:32:00.107Z,0.80
2019-03-16T15:34:29.009Z,0.70
2019-03-16T15:37:17.074Z,0.83
2019-03-16T15:40:05.138Z,0.90
2019-03-16T15:42:53.275Z,0.80
2019-03-16T15:45:41.325Z,0.60
2019-03-16T15:48:29.377Z,0.80
2019-03-16T15:51:17.504Z,0.87
2019-03-16T15:54:05.549Z,0.80
2019-03-16T15:56:46.422Z,0.90
2019-03-16T15:59:27.270Z,0.80
2019-03-16T16:02:08.001Z,1.07
2019-03-16T16:04:48.615Z,0.80
2019-03-16T16:07:29.377Z,0.83
2019-03-16T16:10:09.882Z,0.80
2019-03-16T16:12:50.483Z,0.90
2019-03-16T16:15:31.369Z,0.83
2019-03-16T16:18:12.064Z,0.77
2019-03-16T16:20:52.665Z,0.80
2019-03-16T16:23:33.653Z,0.90
2019-03-16T16:26:14.453Z,0.67
2019-03-16T16:28:55.275Z,1.03
2019-03-16T16:31:35.977Z,0.80
2019-03-16T16:34:16.582Z,1.00
2019-03-16T16:36:57.243Z,1.13
2019-03-16T16:39:38.105Z,1.13
2019-03-16T16:42:18.917Z,1.03
2019-03-16T16:44:59.756Z,0.93
2019-03-16T16:47:40.726Z,0.83
2019-03-16T16:50:21.750Z,0.83
2019-03-16T16:53:02.416Z,0.97
2019-03-16T16:55:43.098Z,0.87
2019-03-16T16:58:23.470Z,0.90
2019-03-16T17:01:03.941Z,0.90
2019-03-16T17:03:32.795Z,0.90
2019-03-16T17:06:20.849Z,0.87
2019-03-16T17:09:08.973Z,0.90
2019-03-16T17:11:57.021Z,0.90
2019-03-16T17:14:45.121Z,1.03
2019-03-16T17:17:35.392Z,0.70
2019-03-16T17:20:22.931Z,1.23
2019-03-16T17:23:11.118Z,1.13
2019-03-16T17:25:59.170Z,3.10
2019-03-16T17:28:47.254Z,1.80
2019-03-16T17:31:42.098Z,1.23
2019-03-16T17:34:25.061Z,1.17
2019-03-16T17:37:13.102Z,1.23
2019-03-16T17:40:01.143Z,0.97
2019-03-16T17:42:49.177Z,0.90
2019-03-16T17:45:37.225Z,0.97
2019-03-16T17:48:25.286Z,1.10
2019-03-16T17:51:13.409Z,1.10
2019-03-16T17:54:01.458Z,1.30
2019-03-16T17:56:42.235Z,1.30
2019-03-16T17:59:24.025Z,1.20
2019-03-16T18:02:04.543Z,1.93
2019-03-16T18:04:45.403Z,1.20
2019-03-16T18:07:26.173Z,1.13
2019-03-16T18:10:06.892Z,1.17
2019-03-16T18:12:47.678Z,1.30
2019-03-16T18:15:28.736Z,1.13
2019-03-16T18:18:09.486Z,1.20
2019-03-16T18:20:50.138Z,0.90
2019-03-16T18:23:30.842Z,1.93
2019-03-16T18:26:11.616Z,1.50
2019-03-16T18:28:52.306Z,1.80
2019-03-16T18:31:32.962Z,1.67
2019-03-16T18:34:13.518Z,4.50
2019-03-16T18:36:54.297Z,8.03
2019-03-16T18:39:35.062Z,11.27
2019-03-16T18:42:15.935Z,12.00
2019-03-16T18:44:56.590Z,11.97
2019-03-16T18:47:37.270Z,9.87
2019-03-16T18:50:17.847Z,9.53
2019-03-16T18:52:58.541Z,8.53
2019-03-16T18:55:39.606Z,8.27
2019-03-16T18:58:20.537Z,9.07
2019-03-16T19:01:01.433Z,10.80
2019-03-16T19:03:42.410Z,9.10
2019-03-16T19:06:23.130Z,7.43
2019-03-16T19:09:04.765Z,12.37
2019-03-16T19:11:45.542Z,7.47
2019-03-16T19:14:26.345Z,7.43
2019-03-16T19:17:07.054Z,6.73
2019-03-16T19:19:47.978Z,8.70
2019-03-16T19:22:28.634Z,10.50
2019-03-16T19:25:09.518Z,10.43
2019-03-16T19:27:50.199Z,12.40
2019-03-16T19:30:31.010Z,11.40
2019-03-16T19:33:11.766Z,9.67
2019-03-16T19:35:52.690Z,6.67
2019-03-16T19:38:33.854Z,10.83
2019-03-16T19:41:14.533Z,9.97
2019-03-16T19:43:55.414Z,6.70
2019-03-16T19:46:36.187Z,7.27
2019-03-16T19:49:17.487Z,6.80
2019-03-16T19:51:58.351Z,7.10
2019-03-16T19:54:39.190Z,7.63
2019-03-16T19:57:19.688Z,10.37
2019-03-16T20:00:00.518Z,10.00
2019-03-16T20:02:48.624Z,17.80
2019-03-16T20:05:24.378Z,9.40
2019-03-16T20:08:03.479Z,11.03
2019-03-16T20:10:51.531Z,6.47
2019-03-16T20:13:39.557Z,9.13
2019-03-16T20:16:27.880Z,9.33
2019-03-16T20:18:56.720Z,10.20
2019-03-16T20:21:45.062Z,8.03
2019-03-16T20:24:33.353Z,7.73
2019-03-16T20:27:21.625Z,7.13
2019-03-16T20:30:09.816Z,6.83
2019-03-16T20:33:03.752Z,8.20
2019-03-16T20:35:47.614Z,9.57
2019-03-16T20:38:35.650Z,8.97
2019-03-16T20:41:35.589Z,8.50
2019-03-16T20:44:13.453Z,9.40
2019-03-16T20:47:01.738Z,7.33
2019-03-16T20:49:49.798Z,5.97
2019-03-16T20:52:37.822Z,5.90
2019-03-16T20:55:25.878Z,5.20
2019-03-16T20:58:07.009Z,5.60
2019-03-16T21:00:47.449Z,6.60
2019-03-16T21:03:28.266Z,4.83
2019-03-16T21:06:08.984Z,5.63
2019-03-16T21:09:02.163Z,5.53
2019-03-16T21:11:32.690Z,6.40
2019-03-16T21:14:13.370Z,6.70
2019-03-16T21:16:54.102Z,7.83
2019-03-16T21:19:34.856Z,8.83
2019-03-16T21:22:15.662Z,8.90
2019-03-16T21:24:56.364Z,10.67
2019-03-16T21:27:37.242Z,10.33
2019-03-16T21:30:18.090Z,11.03
2019-03-16T21:32:58.629Z,10.27
2019-03-16T21:35:39.518Z,11.03
2019-03-16T21:38:20.204Z,11.20
2019-03-16T21:41:01.126Z,11.00
2019-03-16T21:43:41.670Z,9.07
2019-03-16T21:46:22.593Z,8.70
2019-03-16T21:49:03.299Z,7.60
2019-03-16T21:51:44.109Z,7.50
2019-03-16T21:54:24.617Z,7.53
2019-03-16T21:57:05.678Z,7.87
2019-03-16T21:59:46.553Z,7.97
2019-03-16T22:02:27.377Z,7.30
2019-03-16T22:05:07.919Z,7.33
2019-03-16T22:07:48.817Z,7.37
2019-03-16T22:10:29.474Z,8.03
2019-03-16T22:13:10.004Z,8.00
2019-03-16T22:15:50.594Z,7.00
2019-03-16T22:18:31.645Z,7.73
2019-03-16T22:21:12.567Z,7.67
2019-03-16T22:23:53.542Z,7.87
2019-03-16T22:26:34.117Z,8.03
2019-03-16T22:29:14.789Z,8.37
2019-03-16T22:31:55.562Z,7.60
2019-03-16T22:34:36.364Z,8.03
2019-03-16T22:37:17.154Z,11.67
2019-03-16T22:39:58.017Z,9.90
2019-03-16T22:42:38.441Z,11.47
2019-03-16T22:45:19.018Z,11.53
2019-03-16T22:47:59.846Z,10.63
2019-03-16T22:50:40.641Z,9.77
2019-03-16T22:53:21.081Z,9.23
2019-03-16T22:56:01.873Z,10.13
2019-03-16T22:58:42.745Z,10.70
2019-03-16T23:01:23.658Z,10.47
2019-03-16T23:04:07.008Z,9.90
2019-03-16T23:06:47.301Z,9.63
2019-03-16T23:09:28.034Z,10.93
2019-03-16T23:12:09.198Z,9.97
2019-03-16T23:14:49.778Z,10.17
2019-03-16T23:17:30.760Z,10.53
2019-03-16T23:20:11.318Z,9.87
2019-03-16T23:22:52.521Z,9.87
2019-03-16T23:25:33.501Z,12.83
2019-03-16T23:28:14.033Z,10.90
2019-03-16T23:30:54.682Z,12.77
2019-03-16T23:33:35.154Z,12.40
2019-03-16T23:36:14.253Z,13.60
2019-03-16T23:39:02.481Z,13.40
2019-03-16T23:41:50.513Z,12.50
2019-03-16T23:44:38.545Z,11.80
2019-03-16T23:47:26.909Z,10.77
2019-03-16T23:50:15.026Z,11.27
2019-03-16T23:53:03.065Z,9.00
2019-03-16T23:55:51.182Z,9.70
2019-03-16T23:58:31.834Z,8.10
